sensor_id;sensor_type;location;lat;lon;timestamp;temperature;humidity
6956;DHT22;50345;51.136;16.886;2023-07-22T00:01:36;17.50;99.90
6956;DHT22;50345;51.136;16.886;2023-07-22T00:04:02;17.40;99.90
6956;DHT22;50345;51.136;16.886;2023-07-22T00:06:28;17.40;99.90
6956;DHT22;50345;51.136;16.886;2023-07-22T00:08:54;17.40;99.90
6956;DHT22;50345;51.136;16.886;2023-07-22T00:11:19;17.30;99.90
6956;DHT22;50345;51.136;16.886;2023-07-22T00:13:45;17.30;99.90
6956;DHT22;50345;51.136;16.886;2023-07-22T00:16:11;17.40;99.90
6956;DHT22;50345;51.136;16.886;2023-07-22T00:18:36;17.30;99.90
6956;DHT22;50345;51.136;16.886;2023-07-22T00:21:02;17.30;99.90
6956;DHT22;50345;51.136;16.886;2023-07-22T00:23:28;17.30;99.90
6956;DHT22;50345;51.136;16.886;2023-07-22T00:25:53;17.40;99.90
6956;DHT22;50345;51.136;16.886;2023-07-22T00:28:19;17.30;99.90
6956;DHT22;50345;51.136;16.886;2023-07-22T00:30:44;17.30;99.90
6956;DHT22;50345;51.136;16.886;2023-07-22T00:33:10;17.20;99.90
6956;DHT22;50345;51.136;16.886;2023-07-22T00:35:35;17.20;99.90
6956;DHT22;50345;51.136;16.886;2023-07-22T00:38:02;17.20;99.90
6956;DHT22;50345;51.136;16.886;2023-07-22T00:40:28;17.20;99.90
6956;DHT22;50345;51.136;16.886;2023-07-22T00:42:55;17.20;99.90
6956;DHT22;50345;51.136;16.886;2023-07-22T00:45:21;17.20;99.90
6956;DHT22;50345;51.136;16.886;2023-07-22T00:47:47;17.20;99.90
6956;DHT22;50345;51.136;16.886;2023-07-22T00:50:13;17.20;99.90
6956;DHT22;50345;51.136;16.886;2023-07-22T00:52:39;17.20;99.90
6956;DHT22;50345;51.136;16.886;2023-07-22T00:55:05;17.20;99.90
6956;DHT22;50345;51.136;16.886;2023-07-22T00:59:57;17.00;99.90
6956;DHT22;50345;51.136;16.886;2023-07-22T01:02:22;17.00;99.90
6956;DHT22;50345;51.136;16.886;2023-07-22T01:04:49;16.90;99.90
6956;DHT22;50345;51.136;16.886;2023-07-22T01:07:16;16.90;99.90
6956;DHT22;50345;51.136;16.886;2023-07-22T01:09:42;16.90;99.90
6956;DHT22;50345;51.136;16.886;2023-07-22T01:12:09;16.80;99.90
6956;DHT22;50345;51.136;16.886;2023-07-22T01:14:36;16.70;99.90
6956;DHT22;50345;51.136;16.886;2023-07-22T01:17:07;16.70;99.90
6956;DHT22;50345;51.136;16.886;2023-07-22T01:19:33;16.60;99.90
6956;DHT22;50345;51.136;16.886;2023-07-22T01:22:04;16.60;99.90
6956;DHT22;50345;51.136;16.886;2023-07-22T01:24:36;16.50;99.90
6956;DHT22;50345;51.136;16.886;2023-07-22T01:27:03;16.50;99.90
6956;DHT22;50345;51.136;16.886;2023-07-22T01:29:33;16.40;99.90
6956;DHT22;50345;51.136;16.886;2023-07-22T01:31:59;16.40;99.90
6956;DHT22;50345;51.136;16.886;2023-07-22T01:34:25;16.30;99.90
6956;DHT22;50345;51.136;16.886;2023-07-22T01:36:50;16.30;99.90
6956;DHT22;50345;51.136;16.886;2023-07-22T01:39:17;16.30;99.90
6956;DHT22;50345;51.136;16.886;2023-07-22T01:41:44;16.30;99.90
6956;DHT22;50345;51.136;16.886;2023-07-22T01:44:09;16.30;99.90
6956;DHT22;50345;51.136;16.886;2023-07-22T01:46:36;16.20;99.90
6956;DHT22;50345;51.136;16.886;2023-07-22T01:51:30;16.10;99.90
6956;DHT22;50345;51.136;16.886;2023-07-22T01:53:56;16.10;99.90
6956;DHT22;50345;51.136;16.886;2023-07-22T01:58:48;16.00;99.90
6956;DHT22;50345;51.136;16.886;2023-07-22T02:01:13;16.00;99.90
6956;DHT22;50345;51.136;16.886;2023-07-22T02:03:41;16.00;99.90
6956;DHT22;50345;51.136;16.886;2023-07-22T02:06:07;16.00;99.90
6956;DHT22;50345;51.136;16.886;2023-07-22T02:08:32;15.90;99.90
6956;DHT22;50345;51.136;16.886;2023-07-22T02:11:04;15.80;99.90
6956;DHT22;50345;51.136;16.886;2023-07-22T02:13:30;15.80;99.90
6956;DHT22;50345;51.136;16.886;2023-07-22T02:15:56;15.80;99.90
6956;DHT22;50345;51.136;16.886;2023-07-22T02:18:21;15.80;99.90
6956;DHT22;50345;51.136;16.886;2023-07-22T02:20:47;15.70;99.90
6956;DHT22;50345;51.136;16.886;2023-07-22T02:23:13;15.70;99.90
6956;DHT22;50345;51.136;16.886;2023-07-22T02:25:39;15.80;99.90
6956;DHT22;50345;51.136;16.886;2023-07-22T02:28:05;15.70;99.90
6956;DHT22;50345;51.136;16.886;2023-07-22T02:30:34;15.80;99.90
6956;DHT22;50345;51.136;16.886;2023-07-22T02:33:01;15.80;99.90
6956;DHT22;50345;51.136;16.886;2023-07-22T02:35:27;15.80;99.90
6956;DHT22;50345;51.136;16.886;2023-07-22T02:37:53;15.70;99.90
6956;DHT22;50345;51.136;16.886;2023-07-22T02:40:18;15.70;99.90
6956;DHT22;50345;51.136;16.886;2023-07-22T02:42:44;15.80;99.90
6956;DHT22;50345;51.136;16.886;2023-07-22T02:45:10;15.80;99.90
6956;DHT22;50345;51.136;16.886;2023-07-22T02:47:36;15.80;99.90
6956;DHT22;50345;51.136;16.886;2023-07-22T02:50:02;15.80;99.90
6956;DHT22;50345;51.136;16.886;2023-07-22T02:52:28;15.80;99.90
6956;DHT22;50345;51.136;16.886;2023-07-22T02:57:30;15.90;99.90
6956;DHT22;50345;51.136;16.886;2023-07-22T02:59:56;15.90;99.90
6956;DHT22;50345;51.136;16.886;2023-07-22T03:02:22;15.90;99.90
6956;DHT22;50345;51.136;16.886;2023-07-22T03:04:47;15.90;99.90
6956;DHT22;50345;51.136;16.886;2023-07-22T03:07:13;15.90;99.90
6956;DHT22;50345;51.136;16.886;2023-07-22T03:09:38;15.90;99.90
6956;DHT22;50345;51.136;16.886;2023-07-22T03:12:04;15.90;99.90
6956;DHT22;50345;51.136;16.886;2023-07-22T03:14:30;16.00;99.90
6956;DHT22;50345;51.136;16.886;2023-07-22T03:17:01;16.10;99.90
6956;DHT22;50345;51.136;16.886;2023-07-22T03:19:27;16.10;99.90
6956;DHT22;50345;51.136;16.886;2023-07-22T03:21:53;16.10;99.90
6956;DHT22;50345;51.136;16.886;2023-07-22T03:24:18;16.10;99.90
6956;DHT22;50345;51.136;16.886;2023-07-22T03:26:44;16.10;99.90
6956;DHT22;50345;51.136;16.886;2023-07-22T03:29:09;16.10;99.90
6956;DHT22;50345;51.136;16.886;2023-07-22T03:31:35;16.20;99.90
6956;DHT22;50345;51.136;16.886;2023-07-22T03:34:01;16.20;99.90
6956;DHT22;50345;51.136;16.886;2023-07-22T03:36:27;16.20;99.90
6956;DHT22;50345;51.136;16.886;2023-07-22T03:38:52;16.10;99.90
6956;DHT22;50345;51.136;16.886;2023-07-22T03:41:18;16.20;99.90
6956;DHT22;50345;51.136;16.886;2023-07-22T03:43:43;16.10;99.90
6956;DHT22;50345;51.136;16.886;2023-07-22T03:46:09;16.10;99.90
6956;DHT22;50345;51.136;16.886;2023-07-22T03:48:34;16.10;99.90
6956;DHT22;50345;51.136;16.886;2023-07-22T03:51:00;16.00;99.90
6956;DHT22;50345;51.136;16.886;2023-07-22T03:53:26;16.00;99.90
6956;DHT22;50345;51.136;16.886;2023-07-22T03:55:51;16.00;99.90
6956;DHT22;50345;51.136;16.886;2023-07-22T03:58:17;16.00;99.90
6956;DHT22;50345;51.136;16.886;2023-07-22T04:00:42;15.90;99.90
6956;DHT22;50345;51.136;16.886;2023-07-22T04:03:08;15.90;99.90
6956;DHT22;50345;51.136;16.886;2023-07-22T04:05:33;16.00;99.90
6956;DHT22;50345;51.136;16.886;2023-07-22T04:07:59;16.00;99.90
6956;DHT22;50345;51.136;16.886;2023-07-22T04:10:25;16.00;99.90
6956;DHT22;50345;51.136;16.886;2023-07-22T04:12:50;16.00;99.90
6956;DHT22;50345;51.136;16.886;2023-07-22T04:15:16;16.00;99.90
6956;DHT22;50345;51.136;16.886;2023-07-22T04:17:42;16.00;99.90
6956;DHT22;50345;51.136;16.886;2023-07-22T04:20:08;16.00;99.90
6956;DHT22;50345;51.136;16.886;2023-07-22T04:22:34;16.00;99.90
6956;DHT22;50345;51.136;16.886;2023-07-22T04:25:00;16.10;99.90
6956;DHT22;50345;51.136;16.886;2023-07-22T04:27:26;16.10;99.90
6956;DHT22;50345;51.136;16.886;2023-07-22T04:29:52;16.10;99.90
6956;DHT22;50345;51.136;16.886;2023-07-22T04:32:18;16.10;99.90
6956;DHT22;50345;51.136;16.886;2023-07-22T04:34:44;16.20;99.90
6956;DHT22;50345;51.136;16.886;2023-07-22T04:37:09;16.20;99.90
6956;DHT22;50345;51.136;16.886;2023-07-22T04:39:36;16.30;99.90
6956;DHT22;50345;51.136;16.886;2023-07-22T04:42:02;16.30;99.90
6956;DHT22;50345;51.136;16.886;2023-07-22T04:44:27;16.30;99.90
6956;DHT22;50345;51.136;16.886;2023-07-22T04:46:53;16.40;99.90
6956;DHT22;50345;51.136;16.886;2023-07-22T04:49:19;16.40;99.90
6956;DHT22;50345;51.136;16.886;2023-07-22T04:51:48;16.40;99.90
6956;DHT22;50345;51.136;16.886;2023-07-22T04:54:14;16.50;99.90
6956;DHT22;50345;51.136;16.886;2023-07-22T04:56:41;16.50;99.90
6956;DHT22;50345;51.136;16.886;2023-07-22T04:59:07;16.50;99.90
6956;DHT22;50345;51.136;16.886;2023-07-22T05:01:32;16.60;99.90
6956;DHT22;50345;51.136;16.886;2023-07-22T05:03:58;16.60;99.90
6956;DHT22;50345;51.136;16.886;2023-07-22T05:06:23;16.60;99.90
6956;DHT22;50345;51.136;16.886;2023-07-22T05:08:50;16.60;99.90
6956;DHT22;50345;51.136;16.886;2023-07-22T05:11:16;16.70;99.90
6956;DHT22;50345;51.136;16.886;2023-07-22T05:13:42;16.80;99.90
6956;DHT22;50345;51.136;16.886;2023-07-22T05:16:07;16.80;99.90
6956;DHT22;50345;51.136;16.886;2023-07-22T05:18:33;16.80;99.90
6956;DHT22;50345;51.136;16.886;2023-07-22T05:20:59;16.80;99.90
6956;DHT22;50345;51.136;16.886;2023-07-22T05:23:24;16.80;99.90
6956;DHT22;50345;51.136;16.886;2023-07-22T05:25:53;16.90;99.90
6956;DHT22;50345;51.136;16.886;2023-07-22T05:28:19;16.90;99.90
6956;DHT22;50345;51.136;16.886;2023-07-22T05:30:45;16.90;99.90
6956;DHT22;50345;51.136;16.886;2023-07-22T05:33:11;17.00;99.90
6956;DHT22;50345;51.136;16.886;2023-07-22T05:35:36;17.00;99.90
6956;DHT22;50345;51.136;16.886;2023-07-22T05:38:02;17.10;99.90
6956;DHT22;50345;51.136;16.886;2023-07-22T05:40:29;17.10;99.90
6956;DHT22;50345;51.136;16.886;2023-07-22T05:42:55;17.10;99.90
6956;DHT22;50345;51.136;16.886;2023-07-22T05:45:21;17.20;99.90
6956;DHT22;50345;51.136;16.886;2023-07-22T05:47:47;17.20;99.90
6956;DHT22;50345;51.136;16.886;2023-07-22T05:50:12;17.20;99.90
6956;DHT22;50345;51.136;16.886;2023-07-22T05:52:38;17.30;99.90
6956;DHT22;50345;51.136;16.886;2023-07-22T05:57:30;17.30;99.90
6956;DHT22;50345;51.136;16.886;2023-07-22T05:59:56;17.30;99.90
6956;DHT22;50345;51.136;16.886;2023-07-22T06:02:22;17.50;99.90
6956;DHT22;50345;51.136;16.886;2023-07-22T06:04:47;17.50;99.90
6956;DHT22;50345;51.136;16.886;2023-07-22T06:07:13;17.50;99.90
6956;DHT22;50345;51.136;16.886;2023-07-22T06:09:39;17.60;99.90
6956;DHT22;50345;51.136;16.886;2023-07-22T06:12:05;17.70;99.90
6956;DHT22;50345;51.136;16.886;2023-07-22T06:14:30;17.70;99.90
6956;DHT22;50345;51.136;16.886;2023-07-22T06:16:56;17.80;99.90
6956;DHT22;50345;51.136;16.886;2023-07-22T06:19:21;17.80;99.90
6956;DHT22;50345;51.136;16.886;2023-07-22T06:21:49;17.80;99.90
6956;DHT22;50345;51.136;16.886;2023-07-22T06:24:14;17.90;99.90
6956;DHT22;50345;51.136;16.886;2023-07-22T06:26:40;18.00;99.90
6956;DHT22;50345;51.136;16.886;2023-07-22T06:29:05;18.10;99.90
6956;DHT22;50345;51.136;16.886;2023-07-22T06:33:58;18.40;99.90
6956;DHT22;50345;51.136;16.886;2023-07-22T06:46:10;19.20;99.90
6956;DHT22;50345;51.136;16.886;2023-07-22T06:48:36;19.20;99.90
6956;DHT22;50345;51.136;16.886;2023-07-22T06:51:01;19.10;99.90
6956;DHT22;50345;51.136;16.886;2023-07-22T06:53:27;19.10;99.90
6956;DHT22;50345;51.136;16.886;2023-07-22T06:55:52;19.10;99.90
6956;DHT22;50345;51.136;16.886;2023-07-22T06:58:19;19.00;99.90
6956;DHT22;50345;51.136;16.886;2023-07-22T07:00:45;18.90;99.90
6956;DHT22;50345;51.136;16.886;2023-07-22T07:03:11;18.90;99.90
6956;DHT22;50345;51.136;16.886;2023-07-22T07:05:36;19.00;99.90
6956;DHT22;50345;51.136;16.886;2023-07-22T07:08:02;19.10;99.90
6956;DHT22;50345;51.136;16.886;2023-07-22T07:10:29;19.20;99.90
6956;DHT22;50345;51.136;16.886;2023-07-22T07:12:54;19.10;99.90
6956;DHT22;50345;51.136;16.886;2023-07-22T07:15:20;19.10;99.90
6956;DHT22;50345;51.136;16.886;2023-07-22T07:17:45;19.10;99.90
6956;DHT22;50345;51.136;16.886;2023-07-22T07:20:13;19.20;99.90
6956;DHT22;50345;51.136;16.886;2023-07-22T07:22:39;19.20;99.90
6956;DHT22;50345;51.136;16.886;2023-07-22T07:25:05;19.20;99.90
6956;DHT22;50345;51.136;16.886;2023-07-22T07:27:30;19.10;99.90
6956;DHT22;50345;51.136;16.886;2023-07-22T07:29:56;19.20;99.90
6956;DHT22;50345;51.136;16.886;2023-07-22T07:32:22;19.40;99.90
6956;DHT22;50345;51.136;16.886;2023-07-22T07:34:51;19.50;99.90
6956;DHT22;50345;51.136;16.886;2023-07-22T07:37:17;19.60;99.90
6956;DHT22;50345;51.136;16.886;2023-07-22T07:39:42;19.50;99.90
6956;DHT22;50345;51.136;16.886;2023-07-22T07:42:08;19.50;99.90
6956;DHT22;50345;51.136;16.886;2023-07-22T07:44:33;19.50;99.90
6956;DHT22;50345;51.136;16.886;2023-07-22T07:46:59;19.50;99.90
6956;DHT22;50345;51.136;16.886;2023-07-22T07:49:25;19.60;99.90
6956;DHT22;50345;51.136;16.886;2023-07-22T07:51:51;19.70;99.90
6956;DHT22;50345;51.136;16.886;2023-07-22T07:54:16;19.90;99.90
6956;DHT22;50345;51.136;16.886;2023-07-22T07:56:42;20.10;99.90
6956;DHT22;50345;51.136;16.886;2023-07-22T07:59:07;20.20;99.90
6956;DHT22;50345;51.136;16.886;2023-07-22T08:01:34;20.30;99.90
6956;DHT22;50345;51.136;16.886;2023-07-22T08:04:01;20.20;99.90
6956;DHT22;50345;51.136;16.886;2023-07-22T08:06:26;20.20;99.90
6956;DHT22;50345;51.136;16.886;2023-07-22T08:08:52;20.30;99.90
6956;DHT22;50345;51.136;16.886;2023-07-22T08:11:17;20.40;99.90
6956;DHT22;50345;51.136;16.886;2023-07-22T08:13:44;20.40;99.90
6956;DHT22;50345;51.136;16.886;2023-07-22T08:16:11;20.40;99.90
6956;DHT22;50345;51.136;16.886;2023-07-22T08:18:38;20.50;99.90
6956;DHT22;50345;51.136;16.886;2023-07-22T08:21:05;20.60;99.90
6956;DHT22;50345;51.136;16.886;2023-07-22T08:23:32;20.80;99.90
6956;DHT22;50345;51.136;16.886;2023-07-22T08:25:58;21.00;99.90
6956;DHT22;50345;51.136;16.886;2023-07-22T08:28:24;21.00;99.90
6956;DHT22;50345;51.136;16.886;2023-07-22T15:41:26;31.20;29.70
6956;DHT22;50345;51.136;16.886;2023-07-22T16:03:20;31.40;31.80
6956;DHT22;50345;51.136;16.886;2023-07-22T16:08:12;30.20;32.80
6956;DHT22;50345;51.136;16.886;2023-07-22T16:10:37;29.40;34.60
6956;DHT22;50345;51.136;16.886;2023-07-22T16:13:03;29.70;34.10
6956;DHT22;50345;51.136;16.886;2023-07-22T16:15:28;29.40;33.90
6956;DHT22;50345;51.136;16.886;2023-07-22T16:32:35;32.10;29.10
6956;DHT22;50345;51.136;16.886;2023-07-22T16:37:26;29.60;32.20
6956;DHT22;50345;51.136;16.886;2023-07-22T16:39:52;28.70;34.00
6956;DHT22;50345;51.136;16.886;2023-07-22T16:42:19;28.00;36.40
6956;DHT22;50345;51.136;16.886;2023-07-22T16:44:48;27.50;36.20
6956;DHT22;50345;51.136;16.886;2023-07-22T16:47:14;27.10;36.30
6956;DHT22;50345;51.136;16.886;2023-07-22T16:49:39;26.60;39.80
6956;DHT22;50345;51.136;16.886;2023-07-22T16:59:25;25.60;61.20
6956;DHT22;50345;51.136;16.886;2023-07-22T17:04:16;25.30;64.80
6956;DHT22;50345;51.136;16.886;2023-07-22T17:55:26;23.60;44.50
6956;DHT22;50345;51.136;16.886;2023-07-22T18:00:18;23.30;45.90
6956;DHT22;50345;51.136;16.886;2023-07-22T18:02:44;23.10;46.60
6956;DHT22;50345;51.136;16.886;2023-07-22T18:05:10;22.90;47.00
6956;DHT22;50345;51.136;16.886;2023-07-22T18:07:36;22.70;46.80
6956;DHT22;50345;51.136;16.886;2023-07-22T18:10:02;22.60;47.30
6956;DHT22;50345;51.136;16.886;2023-07-22T18:12:29;22.50;47.90
6956;DHT22;50345;51.136;16.886;2023-07-22T18:14:54;22.40;48.60
6956;DHT22;50345;51.136;16.886;2023-07-22T18:17:20;22.30;48.90
6956;DHT22;50345;51.136;16.886;2023-07-22T18:19:45;22.20;49.20
6956;DHT22;50345;51.136;16.886;2023-07-22T18:22:11;22.10;49.70
6956;DHT22;50345;51.136;16.886;2023-07-22T18:24:36;22.00;50.10
6956;DHT22;50345;51.136;16.886;2023-07-22T18:27:02;21.90;50.70
6956;DHT22;50345;51.136;16.886;2023-07-22T18:29:28;21.80;51.00
6956;DHT22;50345;51.136;16.886;2023-07-22T18:31:54;21.70;51.30
6956;DHT22;50345;51.136;16.886;2023-07-22T18:34:19;21.60;51.40
6956;DHT22;50345;51.136;16.886;2023-07-22T18:36:50;21.50;51.50
6956;DHT22;50345;51.136;16.886;2023-07-22T18:39:17;21.30;51.20
6956;DHT22;50345;51.136;16.886;2023-07-22T18:41:43;21.20;51.20
6956;DHT22;50345;51.136;16.886;2023-07-22T18:46:38;21.00;51.80
6956;DHT22;50345;51.136;16.886;2023-07-22T18:49:27;20.80;57.90
6956;DHT22;50345;51.136;16.886;2023-07-22T18:51:53;20.70;53.20
6956;DHT22;50345;51.136;16.886;2023-07-22T18:54:21;20.60;53.60
6956;DHT22;50345;51.136;16.886;2023-07-22T18:56:47;20.50;54.50
6956;DHT22;50345;51.136;16.886;2023-07-22T18:59:12;20.40;55.90
6956;DHT22;50345;51.136;16.886;2023-07-22T19:01:38;20.30;56.60
6956;DHT22;50345;51.136;16.886;2023-07-22T19:04:04;20.20;57.00
6956;DHT22;50345;51.136;16.886;2023-07-22T19:06:29;20.10;57.10
6956;DHT22;50345;51.136;16.886;2023-07-22T19:11:21;19.90;56.80
6956;DHT22;50345;51.136;16.886;2023-07-22T19:13:47;19.80;57.30
6956;DHT22;50345;51.136;16.886;2023-07-22T19:16:12;19.80;57.60
6956;DHT22;50345;51.136;16.886;2023-07-22T19:18:38;19.70;60.10
6956;DHT22;50345;51.136;16.886;2023-07-22T19:21:04;19.60;58.10
6956;DHT22;50345;51.136;16.886;2023-07-22T19:23:29;19.60;58.80
6956;DHT22;50345;51.136;16.886;2023-07-22T19:28:22;19.50;64.70
6956;DHT22;50345;51.136;16.886;2023-07-22T19:30:55;19.40;67.30
6956;DHT22;50345;51.136;16.886;2023-07-22T19:33:24;19.30;67.10
6956;DHT22;50345;51.136;16.886;2023-07-22T19:36:05;19.20;64.80
6956;DHT22;50345;51.136;16.886;2023-07-22T19:38:32;19.10;68.50
6956;DHT22;50345;51.136;16.886;2023-07-22T19:41:05;19.00;81.60
6956;DHT22;50345;51.136;16.886;2023-07-22T19:43:31;18.90;88.50
6956;DHT22;50345;51.136;16.886;2023-07-22T19:46:11;18.80;79.00
6956;DHT22;50345;51.136;16.886;2023-07-22T19:48:38;18.80;78.10
6956;DHT22;50345;51.136;16.886;2023-07-22T20:30:05;17.50;99.90
6956;DHT22;50345;51.136;16.886;2023-07-22T20:34:57;17.40;97.40
6956;DHT22;50345;51.136;16.886;2023-07-22T20:37:23;17.40;99.90
6956;DHT22;50345;51.136;16.886;2023-07-22T20:56:51;17.20;99.90
6956;DHT22;50345;51.136;16.886;2023-07-22T21:01:42;17.10;99.90
6956;DHT22;50345;51.136;16.886;2023-07-22T21:04:08;17.10;99.90
6956;DHT22;50345;51.136;16.886;2023-07-22T21:06:33;17.00;99.90
6956;DHT22;50345;51.136;16.886;2023-07-22T21:09:01;17.00;99.90
6956;DHT22;50345;51.136;16.886;2023-07-22T21:11:27;16.90;99.90
6956;DHT22;50345;51.136;16.886;2023-07-22T21:13:52;16.80;99.90
6956;DHT22;50345;51.136;16.886;2023-07-22T21:21:13;16.60;99.90
6956;DHT22;50345;51.136;16.886;2023-07-22T21:23:40;16.70;99.90
6956;DHT22;50345;51.136;16.886;2023-07-22T21:26:07;16.60;99.90
6956;DHT22;50345;51.136;16.886;2023-07-22T21:28:32;16.60;99.90
6956;DHT22;50345;51.136;16.886;2023-07-22T21:45:46;16.80;99.90
6956;DHT22;50345;51.136;16.886;2023-07-22T21:50:39;16.10;99.90
6956;DHT22;50345;51.136;16.886;2023-07-22T21:53:05;16.90;99.90
6956;DHT22;50345;51.136;16.886;2023-07-22T21:57:58;16.00;99.90
6956;DHT22;50345;51.136;16.886;2023-07-22T22:02:52;16.00;99.90
6956;DHT22;50345;51.136;16.886;2023-07-22T22:05:18;16.00;99.90
6956;DHT22;50345;51.136;16.886;2023-07-22T22:07:43;15.90;99.90
6956;DHT22;50345;51.136;16.886;2023-07-22T22:10:09;15.90;99.90
6956;DHT22;50345;51.136;16.886;2023-07-22T22:12:35;15.80;99.90
6956;DHT22;50345;51.136;16.886;2023-07-22T22:17:27;15.80;99.90
6956;DHT22;50345;51.136;16.886;2023-07-22T22:19:53;15.70;99.90
6956;DHT22;50345;51.136;16.886;2023-07-22T22:22:18;15.70;99.90
6956;DHT22;50345;51.136;16.886;2023-07-22T22:24:44;15.60;99.90
6956;DHT22;50345;51.136;16.886;2023-07-22T22:53:56;15.20;99.90
6956;DHT22;50345;51.136;16.886;2023-07-22T23:08:36;15.10;99.90
6956;DHT22;50345;51.136;16.886;2023-07-22T23:13:28;15.10;99.90
6956;DHT22;50345;51.136;16.886;2023-07-22T23:15:54;15.10;99.90
6956;DHT22;50345;51.136;16.886;2023-07-22T23:18:19;15.00;99.90
6956;DHT22;50345;51.136;16.886;2023-07-22T23:20:47;14.90;99.90
6956;DHT22;50345;51.136;16.886;2023-07-22T23:23:12;14.80;99.90
6956;DHT22;50345;51.136;16.886;2023-07-22T23:25:38;14.80;99.90
6956;DHT22;50345;51.136;16.886;2023-07-22T23:28:03;14.80;99.90
6956;DHT22;50345;51.136;16.886;2023-07-22T23:32:55;14.70;99.90
6956;DHT22;50345;51.136;16.886;2023-07-22T23:35:21;14.70;99.90
6956;DHT22;50345;51.136;16.886;2023-07-22T23:37:46;14.70;99.90
6956;DHT22;50345;51.136;16.886;2023-07-22T23:40:12;14.70;99.90
6956;DHT22;50345;51.136;16.886;2023-07-22T23:47:31;14.40;99.90
6956;DHT22;50345;51.136;16.886;2023-07-22T23:49:57;14.60;99.90
6956;DHT22;50345;51.136;16.886;2023-07-22T23:54:49;14.60;99.90
6956;DHT22;50345;51.136;16.886;2023-07-22T23:57:14;14.60;99.90
6956;DHT22;50345;51.136;16.886;2023-07-22T23:59:40;14.60;99.90
